createdAt,value
2022-08-18T00:01:06.515Z,10.00
2022-08-18T00:03:55.864Z,10.00
2022-08-18T00:06:20.204Z,9.75
2022-08-18T00:08:46.706Z,9.90
2022-08-18T00:11:13.223Z,10.13
2022-08-18T00:13:39.748Z,10.90
2022-08-18T00:16:06.528Z,11.10
2022-08-18T00:18:33.020Z,10.57
2022-08-18T00:20:59.784Z,10.68
2022-08-18T00:23:30.425Z,10.35
2022-08-18T00:25:59.522Z,10.45
2022-08-18T00:28:26.140Z,9.82
2022-08-18T00:30:53.885Z,11.40
2022-08-18T00:33:20.775Z,10.52
2022-08-18T00:35:47.288Z,11.55
2022-08-18T00:38:23.670Z,10.05
2022-08-18T00:40:54.475Z,11.30
2022-08-18T00:43:27.805Z,10.68
2022-08-18T00:45:54.388Z,11.15
2022-08-18T00:48:20.877Z,10.95
2022-08-18T00:50:55.715Z,10.30
2022-08-18T00:53:29.666Z,11.57
2022-08-18T00:58:27.596Z,11.18
2022-08-18T01:00:54.885Z,10.02
2022-08-18T01:03:24.400Z,9.60
2022-08-18T01:06:01.280Z,10.57
2022-08-18T01:08:29.482Z,9.88
2022-08-18T01:10:56.502Z,8.77
2022-08-18T01:13:26.928Z,10.18
2022-08-18T01:15:53.576Z,9.88
2022-08-18T01:18:38.391Z,10.23
2022-08-18T01:21:34.300Z,11.93
2022-08-18T01:24:02.483Z,11.50
2022-08-18T01:26:30.295Z,10.45
2022-08-18T01:28:58.912Z,9.98
2022-08-18T01:31:37.524Z,11.00
2022-08-18T01:34:06.393Z,10.50
2022-08-18T01:36:34.815Z,11.00
2022-08-18T01:39:01.311Z,10.27
2022-08-18T01:41:30.873Z,10.07
2022-08-18T01:43:59.045Z,9.57
2022-08-18T01:46:26.421Z,10.98
2022-08-18T01:48:53.636Z,10.50
2022-08-18T01:51:34.767Z,10.93
2022-08-18T01:54:07.004Z,9.90
2022-08-18T01:56:33.649Z,10.15
2022-08-18T01:59:00.164Z,10.20
2022-08-18T02:01:35.305Z,10.23
2022-08-18T02:04:31.220Z,10.70
2022-08-18T02:06:51.007Z,10.63
2022-08-18T02:09:24.228Z,9.50
2022-08-18T02:11:51.282Z,9.95
2022-08-18T02:14:20.227Z,10.10
2022-08-18T02:16:53.410Z,10.55
2022-08-18T02:19:25.871Z,9.50
2022-08-18T02:21:52.709Z,9.00
2022-08-18T02:24:19.222Z,9.68
2022-08-18T02:26:45.720Z,8.30
2022-08-18T02:29:12.784Z,9.02
2022-08-18T02:31:39.295Z,9.60
2022-08-18T02:34:05.792Z,9.20
2022-08-18T02:36:32.332Z,9.57
2022-08-18T02:38:59.713Z,8.88
2022-08-18T02:41:29.605Z,9.55
2022-08-18T02:43:56.490Z,9.85
2022-08-18T02:46:23.544Z,8.77
2022-08-18T02:48:52.318Z,9.35
2022-08-18T02:51:18.911Z,8.82
2022-08-18T02:53:46.133Z,9.20
2022-08-18T02:56:41.484Z,9.25
2022-08-18T02:59:10.741Z,9.00
2022-08-18T03:01:39.393Z,9.18
2022-08-18T03:04:07.403Z,8.80
2022-08-18T03:06:34.312Z,9.70
2022-08-18T03:09:00.820Z,9.93
2022-08-18T03:11:27.939Z,9.90
2022-08-18T03:13:54.644Z,10.48
2022-08-18T03:16:21.336Z,10.77
2022-08-18T03:18:48.003Z,10.32
2022-08-18T03:21:16.606Z,10.32
2022-08-18T03:23:43.958Z,11.10
2022-08-18T03:26:27.575Z,10.73
2022-08-18T03:28:54.509Z,10.70
2022-08-18T03:31:22.888Z,10.65
2022-08-18T03:33:51.543Z,10.48
2022-08-18T03:36:19.995Z,10.32
2022-08-18T03:38:46.603Z,10.85
2022-08-18T03:41:58.838Z,11.15
2022-08-18T03:44:05.321Z,11.00
2022-08-18T03:46:32.237Z,11.38
2022-08-18T03:49:00.356Z,10.70
2022-08-18T03:51:27.692Z,11.80
2022-08-18T03:53:55.504Z,11.77
2022-08-18T03:56:23.826Z,10.50
2022-08-18T03:58:52.736Z,11.57
2022-08-18T04:01:27.133Z,10.88
2022-08-18T04:03:57.875Z,12.00
2022-08-18T04:06:29.860Z,11.77
2022-08-18T04:08:59.017Z,11.45
2022-08-18T04:11:25.563Z,12.50
2022-08-18T04:13:52.069Z,12.00
2022-08-18T04:16:18.570Z,12.63
2022-08-18T04:18:45.323Z,12.48
2022-08-18T04:21:13.640Z,12.02
2022-08-18T04:23:43.880Z,12.43
2022-08-18T04:26:19.065Z,12.07
2022-08-18T04:28:46.172Z,12.73
2022-08-18T04:31:13.900Z,13.05
2022-08-18T04:33:40.928Z,13.18
2022-08-18T04:36:13.549Z,12.68
2022-08-18T04:38:47.262Z,13.55
2022-08-18T04:41:13.812Z,12.52
2022-08-18T04:43:40.763Z,13.38
2022-08-18T04:46:07.352Z,12.57
2022-08-18T04:48:39.246Z,13.18
2022-08-18T04:51:10.400Z,13.93
2022-08-18T04:53:45.926Z,14.10
2022-08-18T04:56:28.560Z,15.15
2022-08-18T04:58:57.933Z,14.07
2022-08-18T05:01:27.503Z,14.55
2022-08-18T05:03:54.320Z,13.95
2022-08-18T05:06:21.567Z,16.23
2022-08-18T05:08:48.467Z,14.95
2022-08-18T05:11:15.043Z,15.82
2022-08-18T05:13:42.869Z,15.63
2022-08-18T05:16:16.656Z,16.20
2022-08-18T05:18:44.735Z,16.52
2022-08-18T05:21:14.448Z,16.27
2022-08-18T05:23:44.698Z,17.63
2022-08-18T05:26:11.652Z,18.45
2022-08-18T05:28:38.177Z,18.80
2022-08-18T05:31:13.546Z,19.85
2022-08-18T05:33:40.388Z,19.45
2022-08-18T05:36:29.760Z,18.60
2022-08-18T05:39:22.688Z,20.60
2022-08-18T05:41:54.892Z,19.35
2022-08-18T05:44:29.690Z,20.65
2022-08-18T05:47:04.767Z,19.00
2022-08-18T05:49:31.268Z,20.75
2022-08-18T05:52:03.087Z,20.55
2022-08-18T05:54:55.284Z,20.60
2022-08-18T05:57:22.393Z,20.98
2022-08-18T05:59:48.927Z,20.40
2022-08-18T06:02:28.390Z,20.77
2022-08-18T06:05:11.949Z,20.42
2022-08-18T06:07:49.291Z,21.20
2022-08-18T06:10:16.012Z,21.63
2022-08-18T06:12:47.436Z,21.20
2022-08-18T06:15:31.644Z,20.92
2022-08-18T06:18:18.524Z,21.95
2022-08-18T06:21:00.107Z,20.58
2022-08-18T06:23:36.135Z,21.90
2022-08-18T06:26:20.067Z,22.42
2022-08-18T06:29:12.600Z,22.15
2022-08-18T06:32:03.003Z,21.85
2022-08-18T06:35:08.193Z,23.17
2022-08-18T06:38:05.813Z,23.70
2022-08-18T06:40:32.315Z,36.78
2022-08-18T06:43:02.153Z,40.60
2022-08-18T06:45:35.945Z,40.75
2022-08-18T06:48:15.721Z,38.63
2022-08-18T06:50:50.839Z,35.60
2022-08-18T06:53:26.885Z,39.08
2022-08-18T06:55:54.186Z,37.80
2022-08-18T06:58:30.210Z,40.45
2022-08-18T07:01:02.354Z,36.97
2022-08-18T07:03:48.873Z,39.33
2022-08-18T07:06:21.464Z,36.35
2022-08-18T07:08:55.466Z,36.95
2022-08-18T07:14:16.835Z,36.38
2022-08-18T07:16:59.755Z,40.35
2022-08-18T07:19:29.112Z,35.90
2022-08-18T07:22:05.469Z,40.92
2022-08-18T07:24:38.758Z,40.78
2022-08-18T07:27:13.340Z,40.58
2022-08-18T07:30:00.247Z,42.42
2022-08-18T07:32:34.358Z,37.83
2022-08-18T07:35:03.622Z,37.78
2022-08-18T07:37:43.559Z,40.38
2022-08-18T07:40:21.022Z,40.47
2022-08-18T07:43:05.328Z,37.60
2022-08-18T07:45:42.929Z,42.50
2022-08-18T07:48:39.820Z,41.58
2022-08-18T07:51:24.147Z,40.88
2022-08-18T07:53:56.878Z,35.67
2022-08-18T07:56:37.769Z,34.90
2022-08-18T07:59:21.081Z,34.22
2022-08-18T08:01:54.877Z,34.13
2022-08-18T08:04:42.784Z,34.70
2022-08-18T08:07:24.908Z,32.45
2022-08-18T08:10:30.641Z,30.80
2022-08-18T08:13:53.509Z,33.25
2022-08-18T08:16:37.977Z,31.75
2022-08-18T08:19:58.828Z,28.20
2022-08-18T08:22:27.545Z,29.88
2022-08-18T08:25:01.698Z,26.73
2022-08-18T08:27:34.337Z,29.17
2022-08-18T08:30:12.496Z,25.02
2022-08-18T08:33:02.668Z,24.05
2022-08-18T08:35:48.562Z,25.35
2022-08-18T08:38:45.026Z,24.38
2022-08-18T08:43:43.995Z,28.40
2022-08-18T08:46:13.304Z,28.27
2022-08-18T08:48:43.201Z,29.80
2022-08-18T08:51:09.560Z,28.95
2022-08-18T08:53:39.908Z,25.85
2022-08-18T08:56:09.644Z,21.73
2022-08-18T08:58:50.716Z,20.52
2022-08-18T09:01:29.388Z,20.02
2022-08-18T09:04:23.284Z,23.90
2022-08-18T09:07:47.313Z,24.60
2022-08-18T09:10:22.328Z,22.80
2022-08-18T09:13:10.043Z,24.50
2022-08-18T09:15:54.443Z,25.08
2022-08-18T09:18:34.085Z,24.80
2022-08-18T09:21:15.997Z,21.63
2022-08-18T09:23:47.347Z,19.17
2022-08-18T09:26:26.011Z,19.05
2022-08-18T09:29:00.349Z,19.42
2022-08-18T09:31:27.595Z,18.27
2022-08-18T09:34:31.737Z,19.67
2022-08-18T09:37:28.507Z,17.20
2022-08-18T09:40:19.473Z,17.02
2022-08-18T09:43:20.170Z,17.35
2022-08-18T09:45:47.013Z,15.10
2022-08-18T09:48:20.774Z,15.02
2022-08-18T09:51:41.294Z,17.40
2022-08-18T09:54:13.365Z,15.20
2022-08-18T09:56:54.067Z,13.88
2022-08-18T10:02:28.412Z,12.85
2022-08-18T10:05:17.072Z,13.25
2022-08-18T10:07:47.562Z,14.73
2022-08-18T10:10:59.782Z,13.45
2022-08-18T10:13:29.701Z,15.00
2022-08-18T10:16:38.247Z,16.50
2022-08-18T10:19:33.855Z,14.88
2022-08-18T10:22:07.664Z,13.05
2022-08-18T10:24:53.805Z,13.48
2022-08-18T10:27:46.400Z,13.50
2022-08-18T10:36:03.141Z,14.70
2022-08-18T10:41:30.767Z,11.55
2022-08-18T10:43:58.016Z,9.18
2022-08-18T10:46:31.859Z,14.38
2022-08-18T10:52:20.944Z,12.20
2022-08-18T10:55:10.338Z,13.07
2022-08-18T10:58:02.180Z,13.27
2022-08-18T11:00:45.260Z,14.40
2022-08-18T11:03:50.481Z,14.45
2022-08-18T11:06:21.942Z,13.02
2022-08-18T11:08:54.825Z,16.77
2022-08-18T11:11:52.737Z,13.93
2022-08-18T11:14:58.397Z,11.20
2022-08-18T11:17:33.705Z,12.98
2022-08-18T11:20:00.955Z,11.73
2022-08-18T11:22:34.237Z,13.20
2022-08-18T11:25:03.271Z,11.07
2022-08-18T11:27:33.978Z,10.75
2022-08-18T11:30:01.658Z,9.48
2022-08-18T11:32:42.460Z,10.93
2022-08-18T11:35:24.102Z,10.82
2022-08-18T11:38:01.145Z,9.57
2022-08-18T11:41:08.764Z,9.90
2022-08-18T11:43:41.310Z,9.25
2022-08-18T11:46:24.082Z,12.30
2022-08-18T11:48:56.375Z,10.40
2022-08-18T11:51:32.080Z,9.50
2022-08-18T11:54:00.461Z,8.70
2022-08-18T11:56:31.145Z,8.20
2022-08-18T11:59:08.594Z,9.10
2022-08-18T12:01:42.398Z,9.50
2022-08-18T12:04:14.616Z,11.95
2022-08-18T12:06:50.962Z,12.95
2022-08-18T12:12:24.634Z,10.38
2022-08-18T12:18:10.372Z,10.73
2022-08-18T12:20:45.118Z,10.27
2022-08-18T12:23:17.801Z,11.20
2022-08-18T12:25:44.330Z,12.00
2022-08-18T12:28:11.273Z,10.40
2022-08-18T12:30:37.830Z,10.52
2022-08-18T12:33:12.181Z,11.18
2022-08-18T12:35:42.020Z,10.55
2022-08-18T12:38:12.833Z,11.73
2022-08-18T12:40:41.371Z,11.32
2022-08-18T12:43:08.084Z,14.18
2022-08-18T12:45:34.655Z,10.70
2022-08-18T12:48:04.650Z,11.25
2022-08-18T12:50:36.279Z,10.95
2022-08-18T12:53:05.893Z,13.00
2022-08-18T12:55:35.297Z,11.63
2022-08-18T12:58:05.245Z,13.75
2022-08-18T13:00:32.540Z,13.98
2022-08-18T13:02:59.290Z,13.38
2022-08-18T13:05:26.375Z,13.20
2022-08-18T13:07:58.019Z,11.85
2022-08-18T13:10:44.847Z,11.73
2022-08-18T13:13:11.062Z,11.10
2022-08-18T13:15:37.562Z,10.77
2022-08-18T13:18:04.320Z,12.60
2022-08-18T13:20:30.828Z,13.93
2022-08-18T13:22:57.335Z,12.55
2022-08-18T13:25:32.911Z,12.20
2022-08-18T13:28:06.106Z,11.13
2022-08-18T13:30:32.813Z,11.13
2022-08-18T13:33:05.166Z,11.38
2022-08-18T13:35:44.388Z,10.60
2022-08-18T13:38:20.715Z,9.88
2022-08-18T13:40:53.696Z,9.70
2022-08-18T13:43:25.978Z,8.93
2022-08-18T13:45:55.939Z,9.45
2022-08-18T13:48:24.079Z,9.75
2022-08-18T13:50:52.260Z,8.15
2022-08-18T13:53:19.856Z,9.10
2022-08-18T13:55:46.588Z,11.25
2022-08-18T13:58:20.989Z,11.55
2022-08-18T14:00:51.575Z,9.15
2022-08-18T14:03:20.501Z,8.82
2022-08-18T14:06:06.996Z,9.15
2022-08-18T14:08:33.928Z,8.30
2022-08-18T14:11:01.660Z,11.65
2022-08-18T14:13:28.611Z,9.13
2022-08-18T14:15:56.347Z,8.98
2022-08-18T14:18:28.902Z,10.10
2022-08-18T14:21:15.781Z,10.93
2022-08-18T14:24:00.761Z,11.95
2022-08-18T14:26:46.519Z,12.20
2022-08-18T14:29:17.465Z,11.02
2022-08-18T14:32:04.402Z,10.20
2022-08-18T14:34:31.382Z,11.98
2022-08-18T14:36:58.568Z,10.50
2022-08-18T14:39:25.497Z,10.85
2022-08-18T14:41:55.762Z,11.35
2022-08-18T14:44:24.260Z,13.88
2022-08-18T14:46:52.506Z,13.50
2022-08-18T14:49:28.205Z,11.55
2022-08-18T14:51:56.076Z,11.45
2022-08-18T14:54:23.734Z,11.40
2022-08-18T14:56:54.957Z,10.88
2022-08-18T14:59:23.173Z,12.75
2022-08-18T15:01:49.799Z,11.73
2022-08-18T15:04:18.801Z,11.27
2022-08-18T15:06:46.176Z,9.75
2022-08-18T15:09:24.144Z,10.57
2022-08-18T15:11:55.762Z,10.43
2022-08-18T15:14:32.636Z,10.43
2022-08-18T15:17:00.093Z,9.15
2022-08-18T15:19:58.265Z,11.02
2022-08-18T15:22:31.984Z,10.98
2022-08-18T15:25:17.318Z,10.88
2022-08-18T15:27:44.840Z,9.55
2022-08-18T15:30:19.609Z,10.70
2022-08-18T15:32:46.925Z,10.25
2022-08-18T15:35:16.457Z,9.32
2022-08-18T15:37:44.714Z,9.50
2022-08-18T15:40:31.226Z,9.18
2022-08-18T15:43:06.931Z,8.75
2022-08-18T15:45:43.258Z,7.90
2022-08-18T15:48:19.209Z,7.68
2022-08-18T15:50:50.959Z,7.90
2022-08-18T15:53:22.741Z,7.60
2022-08-18T15:55:50.120Z,6.95
2022-08-18T15:58:22.074Z,6.90
2022-08-18T16:00:50.627Z,7.43
2022-08-18T16:03:17.566Z,8.32
2022-08-18T16:05:52.808Z,9.18
2022-08-18T16:08:20.619Z,14.43
2022-08-18T16:10:47.142Z,10.35
2022-08-18T16:13:14.656Z,8.60
2022-08-18T16:15:43.498Z,7.38
2022-08-18T16:18:10.632Z,7.00
2022-08-18T16:20:37.375Z,7.32
2022-08-18T16:23:05.481Z,6.82
2022-08-18T16:25:32.007Z,11.50
2022-08-18T16:27:59.278Z,11.35
2022-08-18T16:30:27.217Z,9.10
2022-08-18T16:32:53.871Z,7.30
2022-08-18T16:35:20.879Z,7.50
2022-08-18T16:37:47.669Z,6.85
2022-08-18T16:40:14.773Z,6.50
2022-08-18T16:42:41.673Z,6.07
2022-08-18T16:45:08.840Z,5.63
2022-08-18T16:47:41.715Z,6.13
2022-08-18T16:50:13.808Z,5.88
2022-08-18T16:52:40.545Z,5.75
2022-08-18T16:55:08.023Z,5.97
2022-08-18T16:57:53.437Z,8.75
2022-08-18T17:00:41.333Z,7.18
2022-08-18T17:03:26.642Z,5.72
2022-08-18T17:06:03.781Z,7.22
2022-08-18T17:08:33.459Z,6.68
2022-08-18T17:11:01.679Z,5.63
2022-08-18T17:13:28.272Z,5.25
2022-08-18T17:15:54.778Z,22.73
2022-08-18T17:18:21.372Z,17.85
2022-08-18T17:20:47.905Z,45.22
2022-08-18T17:23:14.425Z,42.05
2022-08-18T17:25:41.077Z,41.13
2022-08-18T17:28:10.011Z,38.22
2022-08-18T17:30:38.342Z,22.73
2022-08-18T17:33:09.172Z,15.15
2022-08-18T17:35:44.773Z,7.78
2022-08-18T17:38:26.865Z,12.38
2022-08-18T17:40:54.986Z,10.85
2022-08-18T17:43:23.306Z,9.70
2022-08-18T17:45:58.189Z,7.78
2022-08-18T17:48:28.881Z,16.23
2022-08-18T17:51:24.638Z,8.73
2022-08-18T17:53:51.217Z,6.70
2022-08-18T17:56:22.628Z,6.30
2022-08-18T17:59:45.671Z,5.30
2022-08-18T18:02:28.712Z,5.15
2022-08-18T18:04:56.866Z,5.07
2022-08-18T18:07:24.113Z,5.03
2022-08-18T18:10:01.540Z,6.45
2022-08-18T18:12:29.685Z,5.30
2022-08-18T18:14:58.011Z,6.38
2022-08-18T18:17:33.267Z,4.50
2022-08-18T18:20:36.503Z,5.47
2022-08-18T18:23:20.390Z,7.05
2022-08-18T18:25:46.933Z,7.00
2022-08-18T18:28:27.443Z,5.60
2022-08-18T18:30:58.777Z,4.38
2022-08-18T18:33:29.631Z,4.20
2022-08-18T18:35:57.748Z,4.35
2022-08-18T18:38:31.109Z,4.07
2022-08-18T18:41:03.158Z,4.57
2022-08-18T18:43:38.239Z,4.20
2022-08-18T18:46:18.377Z,4.00
2022-08-18T18:48:52.434Z,4.05
2022-08-18T18:51:35.902Z,4.15
2022-08-18T18:54:39.502Z,3.78
2022-08-18T18:57:30.116Z,9.35
2022-08-18T19:00:18.178Z,11.23
2022-08-18T19:03:10.521Z,6.22
2022-08-18T19:05:51.879Z,4.95
2022-08-18T19:08:35.832Z,4.15
2022-08-18T19:11:10.072Z,4.38
2022-08-18T19:13:43.189Z,4.45
2022-08-18T19:16:24.165Z,5.75
2022-08-18T19:19:37.946Z,7.15
2022-08-18T19:22:04.855Z,8.88
2022-08-18T19:24:38.484Z,4.88
2022-08-18T19:27:05.084Z,4.22
2022-08-18T19:29:36.298Z,4.07
2022-08-18T19:32:07.271Z,4.53
2022-08-18T19:34:42.448Z,4.15
2022-08-18T19:37:49.451Z,4.15
2022-08-18T19:40:21.585Z,4.18
2022-08-18T19:43:04.225Z,3.67
2022-08-18T19:45:40.560Z,5.72
2022-08-18T19:48:17.992Z,7.40
2022-08-18T19:51:04.929Z,5.28
2022-08-18T19:53:35.698Z,4.85
2022-08-18T19:56:08.119Z,3.88
2022-08-18T19:59:04.670Z,4.10
2022-08-18T20:02:02.847Z,3.63
2022-08-18T20:04:43.457Z,3.65
2022-08-18T20:07:38.808Z,3.40
2022-08-18T20:10:36.626Z,3.53
2022-08-18T20:13:36.704Z,3.65
2022-08-18T20:16:09.581Z,3.70
2022-08-18T20:18:49.366Z,3.60
2022-08-18T20:21:15.717Z,3.30
2022-08-18T20:24:00.516Z,3.10
2022-08-18T20:26:38.726Z,3.50
2022-08-18T20:29:11.796Z,3.58
2022-08-18T20:31:45.707Z,3.55
2022-08-18T20:34:14.762Z,3.00
2022-08-18T20:36:41.938Z,3.78
2022-08-18T20:39:34.472Z,3.28
2022-08-18T20:42:05.457Z,3.00
2022-08-18T20:44:50.339Z,3.15
2022-08-18T20:47:25.720Z,3.55
2022-08-18T20:50:13.418Z,3.13
2022-08-18T20:53:01.294Z,3.38
2022-08-18T20:55:35.100Z,3.53
2022-08-18T20:58:08.242Z,3.70
2022-08-18T21:00:36.613Z,3.95
2022-08-18T21:03:08.394Z,3.90
2022-08-18T21:05:36.596Z,3.80
2022-08-18T21:08:31.751Z,4.03
2022-08-18T21:11:00.687Z,3.65
2022-08-18T21:13:28.171Z,4.15
2022-08-18T21:15:56.006Z,3.85
2022-08-18T21:18:24.044Z,3.72
2022-08-18T21:20:51.610Z,3.78
2022-08-18T21:23:33.773Z,3.47
2022-08-18T21:26:05.369Z,3.80
2022-08-18T21:28:34.836Z,3.65
2022-08-18T21:31:41.524Z,4.03
2022-08-18T21:33:56.510Z,3.38
2022-08-18T21:36:31.620Z,3.80
2022-08-18T21:39:05.951Z,3.38
2022-08-18T21:41:33.560Z,2.90
2022-08-18T21:44:06.295Z,3.20
2022-08-18T21:46:32.946Z,3.42
2022-08-18T21:49:01.725Z,3.03
2022-08-18T21:51:31.169Z,3.22
2022-08-18T21:53:58.572Z,2.42
2022-08-18T21:56:28.148Z,2.67
2022-08-18T21:59:11.860Z,2.72
2022-08-18T22:01:52.315Z,2.55
2022-08-18T22:04:26.579Z,2.90
2022-08-18T22:06:55.507Z,2.55
2022-08-18T22:09:43.130Z,2.35
2022-08-18T22:12:51.132Z,2.75
2022-08-18T22:15:20.748Z,2.55
2022-08-18T22:18:07.221Z,2.83
2022-08-18T22:20:49.953Z,2.53
2022-08-18T22:23:34.875Z,2.95
2022-08-18T22:26:16.290Z,3.05
2022-08-18T22:28:54.633Z,2.38
2022-08-18T22:31:23.159Z,2.72
2022-08-18T22:33:50.654Z,2.33
2022-08-18T22:36:19.555Z,2.60
2022-08-18T22:38:46.649Z,2.67
2022-08-18T22:41:13.752Z,2.72
2022-08-18T22:43:40.247Z,3.00
2022-08-18T22:46:06.755Z,2.63
2022-08-18T22:48:33.248Z,2.63
2022-08-18T22:50:59.757Z,2.72
2022-08-18T22:53:26.242Z,2.30
2022-08-18T22:55:53.281Z,2.30
2022-08-18T22:58:25.397Z,2.60
2022-08-18T23:01:01.054Z,2.75
2022-08-18T23:03:32.134Z,2.65
2022-08-18T23:06:03.280Z,2.40
2022-08-18T23:08:32.300Z,2.80
2022-08-18T23:11:16.551Z,2.90
2022-08-18T23:13:43.037Z,2.92
2022-08-18T23:16:30.479Z,2.50
2022-08-18T23:18:56.407Z,2.35
2022-08-18T23:21:34.828Z,2.58
2022-08-18T23:24:04.213Z,2.45
2022-08-18T23:26:30.711Z,2.50
2022-08-18T23:28:57.371Z,2.78
2022-08-18T23:31:23.849Z,2.45
2022-08-18T23:33:50.427Z,2.83
2022-08-18T23:36:17.814Z,2.67
2022-08-18T23:38:44.367Z,2.70
2022-08-18T23:41:11.580Z,2.30
2022-08-18T23:43:38.086Z,2.38
2022-08-18T23:46:04.717Z,2.60
2022-08-18T23:48:31.206Z,2.20
2022-08-18T23:51:03.082Z,2.45
2022-08-18T23:53:30.773Z,2.30
2022-08-18T23:55:57.471Z,2.40
2022-08-18T23:58:24.297Z,2.30
